Weather observations for the past three days for
Newnan, Newnan Coweta County Airport
Metric (Imperial)
Date Time (edt) Wind (kph) Vis. (km) Weather Sky Cond. Temperature (ºC) Relative Humidity Wind Chill (°C) Heat Index (°C) Pressure Precipitation (cm)
Air Dwpt 6 hour altimeter (cm) sea level (mb) 1 hr 3 hr 6 hr
Max. Min.
02 13:35 N 17 G 28 16.09 Fair CLR 19.5 6.3 42% 76 0.0
02 13:15 NW 19 G 26 16.09 Fair CLR 19.1 6 43% 76 0.0
02 12:55 N 19 G 28 16.09 Fair CLR 19.5 5.7 41% 76.02 0.0
02 12:35 N 17 G 26 16.09 Fair CLR 18.5 6.1 44% 76.02 0.0
02 12:15 NW 17 16.09 Partly Cloudy SCT120 17.6 6.7 49% 76.05 0.0
02 11:55 NW 17 16.09 Mostly Cloudy BKN095 17.1 7.4 53% 76.02 0.0
02 11:35 NW 17 16.09 Overcast OVC095 16.2 6.9 54% 76.05 0.0
02 11:15 N 15 16.09 Overcast OVC095 15.3 7.5 60% 76.05 0.0
02 10:55 N 22 16.09 Overcast OVC095 14.6 7.3 62% 76.02 0.0 0.03
02 10:35 N 15 16.09 Overcast OVC095 13.7 8 69% 76 0.0
02 10:15 N 13 16.09 Overcast OVC095 13.1 7.5 69% 76 0.0
02 09:55 N 11 16.09 Overcast OVC095 12.7 8.1 74% 76 0.0
02 09:35 N 13 16.09 Overcast OVC085 12.2 7.6 74% 76 0.0
02 09:15 N 7 16.09 Overcast OVC085 12 8.7 80% 76 0.0
02 08:55 N 6 16.09 Overcast OVC095 11.7 8.8 83% 75.97 0.0 0.03
02 08:35 Calm 16.09 Light Drizzle SCT075 OVC095 11.7 9 84% 76 0.0 0.03
02 08:15 W 6 16.09 Light Rain SCT075 OVC085 11.8 10.6 92% 76.07 0.0 0.03
02 07:55 Calm 16.09 Light Rain SCT055 SCT070 OVC095 11.9 10 13.7 11.9 88% 75.95 0.0 0.18
02 07:35 Calm 16.09 Light Rain SCT080 OVC095 12.1 11 93% 75.97 0.0
02 07:15 N 9 16.09 Light Rain OVC095 12.3 10.2 87% 75.92 0.0
02 06:55 Calm 16.09 Light Rain OVC095 12.6 11.1 91% 75.92 0.0 0.05
02 06:35 Calm 16.09 Rain OVC090 12.8 12.3 97% 76 0.0 0.03
02 06:15 Calm 16.09 Overcast OVC090 13 12.3 96% 76.02 0.0
02 05:55 Calm 16.09 Mostly Cloudy BKN100 BKN110 13 12 94% 75.95 0.0
02 05:35 Calm 16.09 Mostly Cloudy BKN100 13 11.8 93% 75.9 0.0
02 05:15 Calm 16.09 Light Rain OVC090 13.2 12.1 93% 75.92 0.0
02 04:55 NW 7 16.09 Overcast OVC090 13.1 12.3 95% 75.92 0.0 0.03 0.13
02 04:35 Calm 16.09 Light Rain OVC090 13.4 12.9 97% 75.92 0.0 0.03
02 04:15 W 6 16.09 Light Drizzle OVC100 13.5 13 97% 75.95 0.0 0.03
02 03:55 Calm 16.09 Drizzle OVC100 13.5 13 97% 75.95 0.0 0.05
02 03:35 Calm 11.27 Light Rain OVC090 13.6 13.1 97% 75.95 0.0 0.05
02 03:15 W 6 11.27 Drizzle OVC100 13.6 13.1 97% 75.97 0.0
02 02:55 Calm 16.09 Rain OVC090 13.7 13.2 97% 75.97 0.0 0.05
02 02:35 Calm 11.27 Light Rain OVC100 13.6 13.1 97% 76 0.0 0.03
02 02:15 Calm 16.09 Rain SCT090 OVC110 13.6 13.1 97% 76 0.0
02 01:55 Calm 16.09 Light Drizzle OVC110 13.7 13.2 16.1 13.7 97% 76.02 0.0
02 01:35 Calm 16.09 Drizzle OVC100 13.8 13.3 97% 76.02 0.0
02 01:15 W 6 16.09 Rain OVC090 14 13.5 97% 76.02 0.0
02 00:55 Calm 16.09 Light Drizzle BKN090 OVC100 14 13.4 96% 76.02 0.0
02 00:35 Calm 16.09 Overcast OVC090 14 13.4 96% 76.02 0.0
02 00:15 Calm 16.09 Overcast BKN090 OVC120 14 13.4 96% 76.02 0.0
01 23:55 Calm 16.09 Light Rain BKN090 BKN120 14.2 13.5 96% 76.02 0.0
01 23:35 Calm 16.09 Overcast SCT070 BKN090 OVC120 14.3 13.5 95% 76.05 0.0
01 23:15 Calm 16.09 Light Drizzle OVC110 14.5 13.3 93% 76.07 0.0
01 22:55 W 6 16.09 Mostly Cloudy SCT085 BKN110 14.7 13.1 90% 76.07 0.0
01 22:35 Calm 16.09 Light Rain SCT085 BKN120 14.9 13.2 90% 76.07 0.0
01 22:15 Calm 16.09 Light Rain SCT070 BKN095 OVC120 15 13 88% 76.07 0.0
01 21:55 Calm 16.09 Overcast OVC095 15.1 12.7 86% 76.07 0.0
01 21:35 Calm 16.09 Overcast OVC095 15.4 12.5 83% 76.05 0.0
01 21:15 Calm 16.09 Overcast OVC095 15.6 12.1 80% 76.05 0.0
01 20:55 NW 6 16.09 Overcast BKN095 OVC110 16 11.8 76% 76.02 0.0
01 20:35 Calm 16.09 Overcast OVC120 16.1 11.6 75% 75.97 0.0
01 20:15 Calm 16.09 Overcast OVC120 16 12.3 79% 76 0.0
01 19:55 Calm 16.09 Overcast OVC110 16 12.6 18 16 80% 75.97 0.0
01 19:35 Calm 16.09 Overcast SCT080 OVC110 16.5 12 75% 75.97 0.0
01 19:15 Calm 16.09 Overcast SCT090 OVC110 16.6 11.9 74% 75.97 0.0
01 18:55 Calm 16.09 Mostly Cloudy BKN110 16.9 11.7 72% 75.97 0.0
01 18:35 Calm 16.09 Partly Cloudy SCT100 SCT120 17 11.9 72% 75.97 0.0
01 18:15 Calm 16.09 Partly Cloudy SCT100 SCT120 17.6 10.7 64% 75.97 0.0
01 17:55 NE 6 16.09 Partly Cloudy SCT100 17.8 11.1 65% 75.92 0.0
01 17:35 Calm 16.09 Overcast OVC100 17.3 11.3 68% 75.97 0.0
01 17:15 Calm 16.09 Overcast OVC100 17.2 11 67% 76 0.0
01 16:55 Calm 16.09 Overcast OVC100 17.3 11.1 67% 76 0.0
01 16:35 W 7 16.09 Overcast OVC090 17 10.8 67% 76.02 0.0
01 16:15 NW 9 16.09 Overcast OVC090 16.7 10.6 67% 76.05 0.0
01 15:55 NW 9 16.09 Overcast OVC090 16.7 10.4 67% 76.07 0.0
01 15:35 Calm 16.09 Overcast OVC090 17 10.3 65% 76.07 0.0
01 15:15 Calm 16.09 Overcast OVC090 17.1 10 63% 76.07 0.0
01 14:55 Calm 16.09 Overcast OVC090 17.1 10.1 64% 76.07 0.0
01 14:35 Calm 16.09 Overcast OVC100 17.3 9.7 61% 76.07 0.0
01 13:55 Calm 16.09 Overcast OVC100 17.6 8.3 18.1 13.1 55% 76.1 0.0
01 13:35 N 6 16.09 Overcast OVC100 17.5 9.2 58% 76.1 0.0
01 13:15 Calm 16.09 Overcast OVC100 17.6 7.5 52% 76.12 0.0
01 12:55 Calm 16.09 Overcast OVC110 17.5 8.3 55% 76.12 0.0
01 12:35 Calm 16.09 Overcast OVC110 17.1 7.9 55% 76.12 0.0
01 12:15 Calm 16.09 Overcast OVC110 17 7.8 55% 76.12 0.0
01 11:55 Calm 16.09 Overcast OVC120 16.8 8.2 57% 76.1 0.0
01 11:35 Calm 16.09 Overcast OVC120 17 6.5 50% 76.1 0.0
01 11:15 N 6 16.09 Mostly Cloudy BKN120 16.4 8.7 61% 76.1 0.0
01 10:55 Calm 16.09 Fair CLR 15.9 8.7 63% 76.1 0.0
01 10:35 NE 6 16.09 Partly Cloudy SCT120 15.5 8.9 65% 76.1 0.0
01 10:15 Calm 16.09 Fair CLR 15.1 8.6 65% 76.07 0.0
01 09:55 Calm 16.09 Fair CLR 14.6 8.2 66% 76.07 0.0
01 09:35 Calm 16.09 Partly Cloudy SCT120 14.7 8.4 66% 76.1 0.0
01 09:15 N 7 16.09 Mostly Cloudy BKN120 14.2 7.7 65% 76.1 0.0
01 08:55 N 6 16.09 Partly Cloudy SCT095 SCT120 14 7.9 67% 76.07 0.0
01 08:35 N 6 16.09 Mostly Cloudy SCT095 BKN120 13.8 8.1 69% 76.05 0.0
01 08:15 NW 6 16.09 Overcast SCT095 OVC120 13.5 8.1 70% 76.07 0.0
01 07:55 Calm 16.09 Overcast BKN095 OVC110 13.1 8.8 15.1 12.5 75% 76.05 0.0
01 07:35 NW 6 16.09 Overcast OVC095 13.2 8.1 71% 76.05 0.0
01 07:15 Calm 16.09 Overcast OVC095 13 8.7 75% 76 0.0
01 06:55 Calm 16.09 Overcast OVC095 12.9 9 77% 76 0.0
01 06:35 Calm 16.09 Light Drizzle SCT060 OVC095 12.6 9.6 82% 76 0.0
01 06:15 Calm 16.09 Overcast SCT060 SCT070 OVC095 12.5 9.6 83% 75.97 0.0
01 05:55 Calm 16.09 Light Rain SCT060 SCT070 OVC095 13.3 8 71% 75.97 0.0
01 05:35 W 6 16.09 Overcast BKN080 OVC095 13.7 7.2 65% 76 0.0
01 05:15 Calm 16.09 Overcast SCT065 SCT080 OVC095 14 6.6 61% 76 0.0
01 04:55 Calm 16.09 Overcast BKN070 OVC095 14.5 6 57% 76 0.0
01 04:35 N 6 16.09 Overcast SCT070 SCT095 OVC110 14.5 5.7 56% 75.95 0.0
01 04:15 N 9 16.09 Overcast SCT090 OVC110 14.5 6 57% 75.95 0.0
01 03:55 N 11 16.09 Overcast BKN100 OVC120 14.6 5.7 55% 75.97 0.0
01 03:35 N 13 16.09 Mostly Cloudy BKN120 14.7 5.8 55% 76 0.0
01 03:15 N 11 16.09 Partly Cloudy SCT120 14.8 5.7 55% 75.97 0.0
01 02:55 N 13 16.09 Partly Cloudy SCT120 15 5.6 54% 75.95 0.0
01 02:35 N 11 16.09 Fair CLR 15.1 5.7 54% 75.97 0.0
01 02:15 N 13 16.09 Fair CLR 15.1 5.9 54% 76 0.0
01 01:55 N 9 16.09 Fair CLR 15 6 18.9 15 55% 75.97 0.0
01 01:35 N 11 16.09 Fair CLR 15.2 6 54% 76 0.0
01 01:15 N 7 16.09 Fair CLR 15.2 6.5 56% 76 0.0
01 00:55 N 6 16.09 Fair CLR 15.1 7 59% 76.02 0.0
01 00:35 N 7 16.09 Fair CLR 15.1 7 59% 76.02 0.0
01 00:15 N 7 16.09 Fair CLR 15 7.1 59% 76 0.0
30 23:55 N 7 16.09 Fair CLR 15.1 7 59% 76 0.0
30 23:35 N 9 16.09 Fair CLR 15 7.1 59% 76.02 0.0
30 23:15 N 11 16.09 Fair CLR 15.2 7.4 60% 76.02 0.0
30 22:55 N 9 16.09 Fair CLR 15.4 7.7 60% 76.02 0.0
30 22:35 N 11 16.09 Fair CLR 15.8 7.9 60% 76.02 0.0
30 22:15 N 11 16.09 Fair CLR 16.1 8.2 60% 76.02 0.0
30 21:55 N 7 16.09 Fair CLR 16.3 8.7 61% 76.02 0.0
30 21:35 N 9 16.09 Fair CLR 16.6 8.5 59% 76 0.0
30 21:15 N 7 16.09 Fair CLR 17 8.2 56% 75.97 0.0
30 20:55 N 9 16.09 Fair CLR 17.6 7.8 53% 75.97 0.0
30 20:35 N 9 16.09 Fair CLR 17.8 7.6 51% 75.97 0.0
30 20:15 N 13 16.09 Fair CLR 18.5 7.1 48% 75.97 0.0
30 19:35 N 19 16.09 Fair CLR 19.6 7.5 46% 75.92 0.0
30 19:15 N 15 16.09 Fair CLR 20.3 8.1 46% 75.9 0.0
30 18:55 N 9 G 17 16.09 Fair CLR 20.8 7.4 42% 75.9 0.0
30 18:35 N 19 16.09 Fair CLR 21.3 6.5 38% 75.9 0.0
30 18:15 NW 19 16.09 Fair CLR 22 7.5 39% 75.87 0.0
30 17:55 N 13 16.09 Fair CLR 22.3 7.1 38% 75.87 0.0
30 17:35 NW 13 16.09 Fair CLR 22.1 6.8 37% 75.84 0.0
30 17:15 N 9 16.09 Fair CLR 21.9 8.2 42% 75.87 0.0
30 16:55 N 15 16.09 Fair CLR 21.8 7.6 40% 75.87 0.0
30 16:35 N 20 G 26 16.09 Fair CLR 22.1 8.3 41% 75.92 0.0
30 16:15 NW 15 16.09 Fair CLR 21.8 9.2 45% 75.92 0.0
30 15:55 N 19 16.09 Fair CLR 21.6 9 45% 75.92 0.0
30 15:35 NW 13 16.09 Fair CLR 21.3 9.7 48% 75.92 0.0
30 15:15 NW 15 16.09 Fair CLR 21.6 9.5 46% 75.92 0.0
30 14:55 N 17 16.09 Fair CLR 21.8 9.9 47% 75.92 0.0
30 14:35 W 11 16.09 Fair CLR 21.7 10.1 48% 75.95 0.0
30 14:15 N 20 16.09 Fair CLR 21.5 10.1 48% 75.92 0.0
30 13:55 N 17 16.09 Fair CLR 21.6 10.8 21.6 16.5 50% 75.92 0.0
30 13:35 NW 9 16.09 Fair CLR 20.6 10.2 51% 75.95 0.0
30 13:15 N 15 16.09 Fair CLR 20.3 10.8 55% 75.97 0.0
30 12:55 N 15 16.09 Fair CLR 20 11.2 57% 76 0.0
30 12:35 N 15 16.09 Fair CLR 19.8 11.9 61% 76 0.0
30 12:15 NW 17 16.09 Partly Cloudy SCT023 19.2 12 63% 76 0.0
30 11:55 NW 13 16.09 Mostly Cloudy BKN021 18.4 12.2 67% 76 0.0
30 11:35 N 17 16.09 Mostly Cloudy BKN019 18.2 12.3 69% 76 0.0
30 11:15 NW 17 16.09 Mostly Cloudy BKN017 17.4 12.6 74% 75.97 0.0
30 10:55 N 19 16.09 Overcast OVC015 16.6 12.7 78% 75.97 0.0
30 10:35 NW 19 16.09 Overcast OVC017 17 12.8 76% 75.95 0.0
30 10:15 NW 22 G 28 16.09 Mostly Cloudy BKN014 BKN019 16.7 13.1 79% 75.97 0.0
30 09:55 NW 19 16.09 Mostly Cloudy BKN012 BKN018 16.6 13.5 82% 75.97 0.0
30 09:35 NW 11 16.09 Partly Cloudy SCT012 SCT031 16.7 14.1 85% 75.92 0.0
30 09:15 NW 11 16.09 Fair CLR 16.7 13.8 83% 75.95 0.0
30 08:55 NW 11 16.09 Fair CLR 16.9 13.9 83% 75.92 0.0
30 08:35 NW 9 16.09 Partly Cloudy SCT043 SCT065 SCT090 16.7 13.9 84% 75.84 0.0
30 08:15 Calm 16.09 Mostly Cloudy BKN075 BKN090 BKN110 17 13.6 81% 75.84 0.0
30 07:55 S 7 16.09 Overcast OVC065 17 13.2 21.1 17 78% 75.84 0.0
30 07:35 Calm 16.09 Overcast SCT047 BKN055 OVC070 17 13 77% 75.87 0.0
30 07:15 NW 7 16.09 Overcast SCT047 BKN055 OVC110 17 13.8 82% 75.92 0.0
30 06:55 N 6 16.09 Overcast BKN060 BKN075 OVC110 17.5 14.5 83% 75.9 0.0
30 06:35 N 6 16.09 Overcast OVC050 17.5 14.5 83% 75.84 0.0
30 06:15 NE 7 16.09 Overcast BKN050 OVC065 17.8 14.6 82% 75.84 0.0
30 05:55 N 15 16.09 Overcast SCT016 OVC048 18.1 15.1 83% 75.87 0.0
30 05:35 N 19 G 30 16.09 Overcast SCT016 SCT039 OVC048 18.5 15.3 82% 75.82 0.0
30 04:55 NW 9 16.09 Mostly Cloudy BKN037 BKN055 18.5 15.6 83% 75.84 0.0
30 04:35 NW 11 16.09 Partly Cloudy SCT055 18.7 15.8 83% 75.82 0.0
30 04:15 NW 7 16.09 Fair CLR 19 16.1 83% 75.79 0.0
30 03:55 NW 7 16.09 Fair CLR 19.5 16.1 81% 75.77 0.0
30 03:35 N 7 16.09 Fair CLR 19.9 16 78% 75.77 0.0
30 03:15 N 9 16.09 Fair CLR 20.3 16 76% 75.77 0.0
30 02:55 NW 9 16.09 Fair CLR 20.5 16.9 80% 75.77 0.0
30 02:35 NW 9 16.09 Fair CLR 20.9 16.7 77% 75.79 0.0
30 02:15 W 9 16.09 Fair CLR 21 17.9 83% 75.79 0.0
30 01:55 W 7 16.09 Thunderstorm in Vicinity SCT011 SCT014 21.1 19.7 24.2 21 92% 75.82 0.0
30 01:35 SW 11 16.09 Mostly Cloudy BKN011 BKN019 21.1 20.1 94% 75.82 0.0
30 01:15 W 7 16.09 Overcast BKN013 BKN019 OVC049 21.1 20.2 95% 75.87 0.0
30 00:55 Calm 16.09 Mostly Cloudy SCT015 SCT029 BKN050 21 20.1 95% 75.84 0.0
30 00:35 SW 7 16.09 Mostly Cloudy SCT041 SCT050 BKN070 21.1 20.1 94% 75.9 0.0
30 00:15 Calm 16.09 Overcast SCT048 BKN050 OVC070 21.2 20.1 93% 75.92 0.0
29 23:55 Calm 16.09 Partly Cloudy SCT050 21.3 20 92% 75.92 0.0
29 23:35 Calm 16.09 Partly Cloudy SCT060 21.9 20 89% 75.95 0.0
29 23:15 Calm 16.09 Partly Cloudy SCT065 SCT070 22 20 88% 75.95 0.0
29 22:55 Calm 16.09 Fair CLR 22 19.8 87% 76 0.0
29 22:35 Calm 16.09 Fair CLR 22 19.7 87% 75.97 0.0
29 22:15 SW 6 16.09 Fair CLR 22.3 19.7 85% 75.95 0.0
29 21:55 SW 6 16.09 Fair CLR 22.5 19.6 84% 75.92 0.0
29 21:35 SW 6 16.09 Fair CLR 22.5 19.6 84% 75.92 0.0
29 21:15 SW 6 16.09 Fair CLR 22.7 19.6 83% 75.92 0.0
29 20:55 SW 6 16.09 Fair CLR 23 19.6 81% 75.9 0.0
29 20:35 Calm 16.09 Fair CLR 23.1 19.1 78% 75.87 0.0
29 20:15 Calm 16.09 Fair CLR 23.3 18.8 76% 75.84 0.0
29 19:55 Calm 16.09 Fair CLR 24.2 18.6 27.2 24.2 71% 25 75.82 0.0
29 19:35 W 6 16.09 Fair CLR 24.2 18.7 71% 25 75.87 0.0
29 19:15 Calm 16.09 Fair CLR 25.2 18.1 65% 26 75.84 0.0
29 18:55 W 6 16.09 Partly Cloudy SCT037 SCT055 25.7 18 63% 27 75.84 0.0
29 18:35 W 7 16.09 Mostly Cloudy BKN037 BKN046 26.2 18 61% 27 75.87 0.0
29 18:15 W 7 16.09 Partly Cloudy SCT037 SCT044 26.4 18 60% 27 75.84 0.0
29 17:55 NW 9 16.09 Fair CLR 27 17.8 57% 28 75.84 0.0
29 17:35 W 11 16.09 Partly Cloudy SCT037 26.4 17.7 59% 27 75.84 0.0
29 17:15 W 11 16.09 Partly Cloudy SCT037 26.9 17.7 57% 28 75.84 0.0
29 16:55 W 11 16.09 Partly Cloudy SCT038 SCT044 26.4 17.8 59% 27 75.84 0.0
29 16:35 W 15 16.09 Mostly Cloudy BKN036 BKN044 27.2 17.7 56% 28 75.87 0.0
29 16:15 W 7 16.09 Mostly Cloudy BKN034 BKN049 BKN060 26.4 17.5 58% 27 75.92 0.0
29 15:55 W 9 16.09 Mostly Cloudy SCT034 BKN060 26.5 17.5 58% 27 75.95 0.0
29 15:35 W 11 16.09 Mostly Cloudy SCT049 BKN060 26.6 17.6 58% 27 75.97 0.0
29 15:15 W 13 16.09 Overcast SCT038 BKN048 OVC050 26 17 58% 27 76 0.0
29 14:55 W 13 16.09 Overcast BKN039 OVC047 26 16.9 57% 27 76 0.0
29 14:35 W 11 16.09 Overcast OVC039 26 16.4 56% 27 76 0.0
29 14:15 W 17 G 35 16.09 Partly Cloudy SCT039 26.6 16.2 53% 27 76.02 0.0
29 13:55 W 22 G 35 16.09 Partly Cloudy SCT041 26.5 15.5 26.5 17 51% 27 76.02 0.0
Date Time (edt) Wind (kph) Vis. (km) Weather Sky Cond. Air Dwpt Max. Min. Relative Humidity Wind Chill (°C) Heat Index (°C) altimeter (cm) sea level (mb) 1 hr 3 hr 6 hr
6 hour
Temperature (ºC) Pressure Precipitation (cm)